createdAt,value
2022-12-18T00:01:38.330Z,50.01
2022-12-18T00:04:08.824Z,52.42
2022-12-18T00:06:36.653Z,51.36
2022-12-18T00:09:05.080Z,52.10
2022-12-18T00:11:34.787Z,53.04
2022-12-18T00:14:02.337Z,53.21
2022-12-18T00:16:34.388Z,52.25
2022-12-18T00:19:02.428Z,51.88
2022-12-18T00:21:31.052Z,52.06
2022-12-18T00:23:59.390Z,50.11
2022-12-18T00:26:33.010Z,50.89
2022-12-18T00:29:06.850Z,49.92
2022-12-18T00:31:34.252Z,50.31
2022-12-18T00:34:01.954Z,50.32
2022-12-18T00:36:33.016Z,49.33
2022-12-18T00:39:01.682Z,50.13
2022-12-18T00:41:48.206Z,51.81
2022-12-18T00:44:18.162Z,50.26
2022-12-18T00:46:47.428Z,51.92
2022-12-18T00:49:15.507Z,51.03
2022-12-18T00:51:42.259Z,50.71
2022-12-18T00:54:09.912Z,50.08
2022-12-18T00:56:45.743Z,51.83
2022-12-18T00:59:16.287Z,51.75
2022-12-18T01:01:43.773Z,51.09
2022-12-18T01:04:10.711Z,51.79
2022-12-18T01:06:37.831Z,52.46
2022-12-18T01:09:04.750Z,52.65
2022-12-18T01:11:31.907Z,51.35
2022-12-18T01:13:58.673Z,50.01
2022-12-18T01:16:25.435Z,49.76
2022-12-18T01:18:55.136Z,49.39
2022-12-18T01:21:23.509Z,49.12
2022-12-18T01:23:56.017Z,49.49
2022-12-18T01:26:25.298Z,48.83
2022-12-18T01:28:52.386Z,48.82
2022-12-18T01:31:34.020Z,48.30
2022-12-18T01:34:04.772Z,47.91
2022-12-18T01:36:35.341Z,48.34
2022-12-18T01:39:12.324Z,47.80
2022-12-18T01:42:01.394Z,48.31
2022-12-18T01:45:05.351Z,49.20
2022-12-18T01:48:02.068Z,49.94
2022-12-18T01:50:40.680Z,50.12
2022-12-18T01:53:24.065Z,49.38
2022-12-18T01:55:57.184Z,49.12
2022-12-18T01:58:57.697Z,50.36
2022-12-18T02:01:26.305Z,52.21
2022-12-18T02:03:53.854Z,49.43
2022-12-18T02:06:34.302Z,50.19
2022-12-18T02:09:15.794Z,49.89
2022-12-18T02:12:14.998Z,49.57
2022-12-18T02:14:53.185Z,50.48
2022-12-18T02:17:55.428Z,50.18
2022-12-18T02:20:43.773Z,49.43
2022-12-18T02:24:07.532Z,48.58
2022-12-18T02:26:44.690Z,48.89
2022-12-18T02:29:28.954Z,48.80
2022-12-18T02:32:00.935Z,48.23
2022-12-18T02:34:32.563Z,48.45
2022-12-18T02:37:04.850Z,48.05
2022-12-18T02:39:34.512Z,48.54
2022-12-18T02:42:08.770Z,48.39
2022-12-18T02:44:47.919Z,48.38
2022-12-18T02:47:23.620Z,48.78
2022-12-18T02:50:25.279Z,50.83
2022-12-18T02:53:37.264Z,50.95
2022-12-18T02:56:23.408Z,50.89
2022-12-18T02:58:53.548Z,51.22
2022-12-18T03:01:53.814Z,50.19
2022-12-18T03:04:31.303Z,49.56
2022-12-18T03:07:03.843Z,51.70
2022-12-18T03:09:40.795Z,52.49
2022-12-18T03:12:24.999Z,51.31
2022-12-18T03:15:17.274Z,51.52
2022-12-18T03:17:57.688Z,50.81
2022-12-18T03:20:30.152Z,52.51
2022-12-18T03:23:05.494Z,50.96
2022-12-18T03:25:35.617Z,51.56
2022-12-18T03:28:06.597Z,50.38
2022-12-18T03:30:38.319Z,50.93
2022-12-18T03:33:48.200Z,52.89
2022-12-18T03:36:16.156Z,52.44
2022-12-18T03:38:43.114Z,51.96
2022-12-18T03:41:42.028Z,52.13
2022-12-18T03:44:33.493Z,50.96
2022-12-18T03:47:04.532Z,50.91
2022-12-18T03:49:46.329Z,50.39
2022-12-18T03:52:34.110Z,50.70
2022-12-18T03:55:04.803Z,51.58
2022-12-18T03:57:33.898Z,51.13
2022-12-18T04:00:13.690Z,50.45
2022-12-18T04:03:05.866Z,49.11
2022-12-18T04:05:41.723Z,49.73
2022-12-18T04:08:08.928Z,49.89
2022-12-18T04:10:38.912Z,49.47
2022-12-18T04:13:05.738Z,49.65
2022-12-18T04:15:37.063Z,48.64
2022-12-18T04:18:05.834Z,49.01
2022-12-18T04:20:39.646Z,50.63
2022-12-18T04:23:06.339Z,51.07
2022-12-18T04:25:33.369Z,51.00
2022-12-18T04:28:09.643Z,50.12
2022-12-18T04:30:38.374Z,49.02
2022-12-18T04:33:11.295Z,51.42
2022-12-18T04:35:40.504Z,49.79
2022-12-18T04:38:11.792Z,50.28
2022-12-18T04:40:39.321Z,49.60
2022-12-18T04:43:14.637Z,48.72
2022-12-18T04:45:41.413Z,48.52
2022-12-18T04:48:08.062Z,48.74
2022-12-18T04:50:34.929Z,48.88
2022-12-18T04:53:01.920Z,49.59
2022-12-18T04:55:29.241Z,49.66
2022-12-18T04:57:56.086Z,48.64
2022-12-18T05:00:23.035Z,49.40
2022-12-18T05:02:49.819Z,48.83
2022-12-18T05:05:17.008Z,48.27
2022-12-18T05:07:43.792Z,48.64
2022-12-18T05:10:10.782Z,48.51
2022-12-18T05:12:58.909Z,48.18
2022-12-18T05:15:31.944Z,48.03
2022-12-18T05:17:59.646Z,48.13
2022-12-18T05:20:27.717Z,48.55
2022-12-18T05:22:55.550Z,48.57
2022-12-18T05:25:23.088Z,50.02
2022-12-18T05:27:50.298Z,49.58
2022-12-18T05:30:17.394Z,50.16
2022-12-18T05:32:44.197Z,49.30
2022-12-18T05:35:12.115Z,50.49
2022-12-18T05:37:42.889Z,51.55
2022-12-18T05:40:11.968Z,51.85
2022-12-18T05:42:39.031Z,51.56
2022-12-18T05:45:06.767Z,53.44
2022-12-18T05:47:33.464Z,52.83
2022-12-18T05:50:00.250Z,51.81
2022-12-18T05:52:26.930Z,51.62
2022-12-18T05:54:53.704Z,53.14
2022-12-18T05:57:20.919Z,53.70
2022-12-18T05:59:47.611Z,52.65
2022-12-18T06:02:14.376Z,53.88
2022-12-18T06:04:41.284Z,53.48
2022-12-18T06:07:08.152Z,54.16
2022-12-18T06:09:34.880Z,54.57
2022-12-18T06:12:01.537Z,54.63
2022-12-18T06:14:28.665Z,55.26
2022-12-18T06:16:55.359Z,56.61
2022-12-18T06:19:22.369Z,54.39
2022-12-18T06:21:50.120Z,53.49
2022-12-18T06:24:16.981Z,52.73
2022-12-18T06:26:43.711Z,55.42
2022-12-18T06:29:10.446Z,53.41
2022-12-18T06:31:37.223Z,53.69
2022-12-18T06:34:05.263Z,55.54
2022-12-18T06:36:32.448Z,55.65
2022-12-18T06:39:00.192Z,55.68
2022-12-18T06:41:27.139Z,54.37
2022-12-18T06:43:59.376Z,54.62
2022-12-18T06:46:26.434Z,54.37
2022-12-18T06:48:53.675Z,54.96
2022-12-18T06:51:24.728Z,55.03
2022-12-18T06:53:51.540Z,54.20
2022-12-18T06:56:18.430Z,53.01
2022-12-18T06:58:45.247Z,51.93
2022-12-18T07:01:13.630Z,54.14
2022-12-18T07:03:42.634Z,54.84
2022-12-18T07:06:20.041Z,53.74
2022-12-18T07:08:47.750Z,54.60
2022-12-18T07:11:15.237Z,56.30
2022-12-18T07:13:43.041Z,56.34
2022-12-18T07:16:20.775Z,55.66
2022-12-18T07:18:49.513Z,56.26
2022-12-18T07:21:19.912Z,57.03
2022-12-18T07:23:48.725Z,55.14
2022-12-18T07:26:19.605Z,55.04
2022-12-18T07:28:47.024Z,54.47
2022-12-18T07:31:17.668Z,55.77
2022-12-18T07:33:44.732Z,57.01
2022-12-18T07:36:11.975Z,56.09
2022-12-18T07:38:39.470Z,55.98
2022-12-18T07:41:12.328Z,55.46
2022-12-18T07:43:40.946Z,53.88
2022-12-18T07:46:11.057Z,52.90
2022-12-18T07:48:43.457Z,54.67
2022-12-18T07:51:13.392Z,54.51
2022-12-18T07:53:41.813Z,53.27
2022-12-18T07:56:27.320Z,53.67
2022-12-18T07:58:55.402Z,55.04
2022-12-18T08:01:22.303Z,56.08
2022-12-18T08:03:49.478Z,54.04
2022-12-18T08:06:19.414Z,54.87
2022-12-18T08:08:49.344Z,56.82
2022-12-18T08:11:16.852Z,53.89
2022-12-18T08:13:43.666Z,53.46
2022-12-18T08:16:10.714Z,53.40
2022-12-18T08:18:38.985Z,51.79
2022-12-18T08:21:11.129Z,51.59
2022-12-18T08:23:42.670Z,52.42
2022-12-18T08:26:12.012Z,55.20
2022-12-18T08:28:39.504Z,55.58
2022-12-18T08:31:07.102Z,54.22
2022-12-18T08:33:34.910Z,53.47
2022-12-18T08:36:02.644Z,54.25
2022-12-18T08:38:29.643Z,53.23
2022-12-18T08:41:26.118Z,55.47
2022-12-18T08:44:11.163Z,53.36
2022-12-18T08:46:41.624Z,54.03
2022-12-18T08:49:11.724Z,53.65
2022-12-18T08:51:39.374Z,52.36
2022-12-18T08:54:11.629Z,51.30
2022-12-18T08:56:38.449Z,51.44
2022-12-18T08:59:05.396Z,51.86
2022-12-18T09:01:32.361Z,52.25
2022-12-18T09:04:00.269Z,51.10
2022-12-18T09:06:27.487Z,51.13
2022-12-18T09:08:54.372Z,53.04
2022-12-18T09:11:26.178Z,51.86
2022-12-18T09:13:54.795Z,52.70
2022-12-18T09:16:26.142Z,52.31
2022-12-18T09:19:00.531Z,50.81
2022-12-18T09:21:31.440Z,50.13
2022-12-18T09:24:01.142Z,50.25
2022-12-18T09:26:28.281Z,50.58
2022-12-18T09:28:55.139Z,49.20
2022-12-18T09:31:24.898Z,48.16
2022-12-18T09:33:52.574Z,50.73
2022-12-18T09:36:20.381Z,52.25
2022-12-18T09:38:48.496Z,51.60
2022-12-18T09:41:42.570Z,49.59
2022-12-18T09:44:27.236Z,49.22
2022-12-18T09:47:21.128Z,53.14
2022-12-18T09:49:53.708Z,52.85
2022-12-18T09:52:49.068Z,51.78
2022-12-18T09:55:36.891Z,50.72
2022-12-18T09:58:29.772Z,53.20
2022-12-18T10:00:57.176Z,54.24
2022-12-18T10:03:24.262Z,55.49
2022-12-18T10:06:05.748Z,57.75
2022-12-18T10:08:41.969Z,58.18
2022-12-18T10:11:40.918Z,58.31
2022-12-18T10:14:46.383Z,56.75
2022-12-18T10:17:46.571Z,55.52
2022-12-18T10:20:46.201Z,53.16
2022-12-18T10:23:52.528Z,52.65
2022-12-18T10:26:19.483Z,50.33
2022-12-18T10:28:47.942Z,50.29
2022-12-18T10:31:24.580Z,49.61
2022-12-18T10:33:52.170Z,49.21
2022-12-18T10:36:18.844Z,50.18
2022-12-18T10:38:45.607Z,52.92
2022-12-18T10:41:18.400Z,51.61
2022-12-18T10:43:45.805Z,50.36
2022-12-18T10:46:12.431Z,50.26
2022-12-18T10:48:48.291Z,49.94
2022-12-18T10:51:25.676Z,49.95
2022-12-18T10:54:15.871Z,50.85
2022-12-18T10:56:43.696Z,54.00
2022-12-18T10:59:14.607Z,53.46
2022-12-18T11:01:57.490Z,55.79
2022-12-18T11:04:27.875Z,54.20
2022-12-18T11:07:01.376Z,51.80
2022-12-18T11:09:33.960Z,51.96
2022-12-18T11:12:23.865Z,51.27
2022-12-18T11:14:58.511Z,51.70
2022-12-18T11:17:35.856Z,52.31
2022-12-18T11:20:21.102Z,50.64
2022-12-18T11:23:03.909Z,48.81
2022-12-18T11:25:35.005Z,49.25
2022-12-18T11:28:25.098Z,49.38
2022-12-18T11:31:38.629Z,47.43
2022-12-18T11:34:29.205Z,48.97
2022-12-18T11:37:00.642Z,49.11
2022-12-18T11:39:53.727Z,50.04
2022-12-18T11:42:43.324Z,50.01
2022-12-18T11:45:13.814Z,51.62
2022-12-18T11:48:10.532Z,52.36
2022-12-18T11:50:37.502Z,51.69
2022-12-18T11:53:06.500Z,50.29
2022-12-18T11:55:56.842Z,50.18
2022-12-18T11:58:59.401Z,50.20
2022-12-18T12:01:49.762Z,47.96
2022-12-18T12:04:46.984Z,47.11
2022-12-18T12:07:36.122Z,46.23
2022-12-18T12:10:18.929Z,47.65
2022-12-18T12:20:29.758Z,52.65
2022-12-18T12:23:37.907Z,50.25
2022-12-18T12:26:19.976Z,50.49
2022-12-18T12:29:19.412Z,48.61
2022-12-18T12:32:50.894Z,50.53
2022-12-18T12:36:16.954Z,51.29
2022-12-18T12:38:55.771Z,52.21
2022-12-18T12:41:53.117Z,51.54
2022-12-18T12:44:32.974Z,49.09
2022-12-18T12:47:14.965Z,50.98
2022-12-18T12:49:50.925Z,50.04
2022-12-18T12:53:07.975Z,49.43
2022-12-18T12:58:55.639Z,49.99
2022-12-18T13:02:06.115Z,52.98
2022-12-18T13:05:28.182Z,53.15
2022-12-18T13:08:18.872Z,52.98
2022-12-18T13:10:51.065Z,54.92
2022-12-18T13:13:26.606Z,54.13
2022-12-18T13:16:14.729Z,54.15
2022-12-18T13:19:00.773Z,52.99
2022-12-18T13:22:49.450Z,53.55
2022-12-18T13:25:45.090Z,52.82
2022-12-18T13:28:56.817Z,51.45
2022-12-18T13:31:50.635Z,51.02
2022-12-18T13:34:29.504Z,51.44
2022-12-18T13:37:59.308Z,49.32
2022-12-18T13:40:52.950Z,54.21
2022-12-18T13:46:22.375Z,56.25
2022-12-18T13:49:07.515Z,56.34
2022-12-18T13:51:36.437Z,55.64
2022-12-18T13:54:29.778Z,54.63
2022-12-18T13:56:57.485Z,54.14
2022-12-18T13:59:36.755Z,53.48
2022-12-18T14:02:28.154Z,52.36
2022-12-18T14:04:56.423Z,55.47
2022-12-18T14:07:27.095Z,56.12
2022-12-18T14:12:57.847Z,56.34
2022-12-18T14:15:27.884Z,55.23
2022-12-18T14:17:59.770Z,55.18
2022-12-18T14:20:32.583Z,56.45
2022-12-18T14:23:01.176Z,56.99
2022-12-18T14:25:31.484Z,58.71
2022-12-18T14:28:08.387Z,58.24
2022-12-18T14:30:43.901Z,58.93
2022-12-18T14:33:17.094Z,58.07
2022-12-18T14:36:03.236Z,60.66
2022-12-18T14:38:35.529Z,59.61
2022-12-18T14:41:05.389Z,56.87
2022-12-18T14:43:39.295Z,58.53
2022-12-18T14:46:33.954Z,57.59
2022-12-18T14:49:35.564Z,55.81
2022-12-18T14:52:07.251Z,54.78
2022-12-18T14:54:38.244Z,57.48
2022-12-18T14:57:26.260Z,58.08
2022-12-18T14:59:53.529Z,58.00
2022-12-18T15:02:27.498Z,57.08
2022-12-18T15:05:26.495Z,55.55
2022-12-18T15:07:56.592Z,55.74
2022-12-18T15:10:24.597Z,55.31
2022-12-18T15:12:57.208Z,57.96
2022-12-18T15:15:40.333Z,59.59
2022-12-18T15:18:11.456Z,60.63
2022-12-18T15:20:57.295Z,59.27
2022-12-18T15:23:25.324Z,58.72
2022-12-18T15:26:11.344Z,61.17
2022-12-18T15:29:00.855Z,59.69
2022-12-18T15:31:35.768Z,60.70
2022-12-18T15:34:13.341Z,59.85
2022-12-18T15:36:40.795Z,60.97
2022-12-18T15:39:07.605Z,62.27
2022-12-18T15:41:36.503Z,61.92
2022-12-18T15:44:18.082Z,61.46
2022-12-18T15:46:44.939Z,61.70
2022-12-18T15:49:11.633Z,60.67
2022-12-18T15:51:39.680Z,60.40
2022-12-18T15:54:14.345Z,61.47
2022-12-18T15:56:59.977Z,62.75
2022-12-18T15:59:27.387Z,61.42
2022-12-18T16:01:54.270Z,61.03
2022-12-18T16:04:23.197Z,61.19
2022-12-18T16:07:13.706Z,60.70
2022-12-18T16:09:37.882Z,60.11
2022-12-18T16:12:05.507Z,61.30
2022-12-18T16:14:33.238Z,61.14
2022-12-18T16:17:04.432Z,59.80
2022-12-18T16:19:31.391Z,60.14
2022-12-18T16:21:59.737Z,61.03
2022-12-18T16:24:30.639Z,61.36
2022-12-18T16:27:00.396Z,60.79
2022-12-18T16:29:29.046Z,60.03
2022-12-18T16:32:00.836Z,59.39
2022-12-18T16:34:35.993Z,59.11
2022-12-18T16:37:06.694Z,56.47
2022-12-18T16:39:38.225Z,59.33
2022-12-18T16:42:20.314Z,57.39
2022-12-18T16:44:49.142Z,57.94
2022-12-18T16:47:16.577Z,57.41
2022-12-18T16:49:45.869Z,56.69
2022-12-18T16:52:13.763Z,58.54
2022-12-18T16:54:40.427Z,58.06
2022-12-18T16:57:07.143Z,58.86
2022-12-18T16:59:35.335Z,59.22
2022-12-18T17:02:03.061Z,57.84
2022-12-18T17:04:29.927Z,56.46
2022-12-18T17:06:56.970Z,56.78
2022-12-18T17:09:26.551Z,56.54
2022-12-18T17:11:54.637Z,57.54
2022-12-18T17:14:24.674Z,57.59
2022-12-18T17:17:19.234Z,58.01
2022-12-18T17:19:41.554Z,57.84
2022-12-18T17:22:08.533Z,55.78
2022-12-18T17:24:35.846Z,56.17
2022-12-18T17:27:04.417Z,55.90
2022-12-18T17:29:31.178Z,54.71
2022-12-18T17:31:59.712Z,55.72
2022-12-18T17:34:27.939Z,54.83
2022-12-18T17:36:54.958Z,54.65
2022-12-18T17:39:21.865Z,54.45
2022-12-18T17:41:50.306Z,55.13
2022-12-18T17:44:18.457Z,56.45
2022-12-18T17:46:46.192Z,56.22
2022-12-18T17:49:14.160Z,56.00
2022-12-18T17:51:43.005Z,55.01
2022-12-18T17:54:11.030Z,54.39
2022-12-18T17:56:39.122Z,55.53
2022-12-18T17:59:07.065Z,55.85
2022-12-18T18:01:34.074Z,57.31
2022-12-18T18:04:01.990Z,57.69
2022-12-18T18:06:28.919Z,57.64
2022-12-18T18:08:57.454Z,59.79
2022-12-18T18:11:43.914Z,60.55
2022-12-18T18:14:19.561Z,62.54
2022-12-18T18:16:49.340Z,62.62
2022-12-18T18:19:20.943Z,62.01
2022-12-18T18:21:50.123Z,60.78
2022-12-18T18:24:20.202Z,60.99
2022-12-18T18:26:47.075Z,60.83
2022-12-18T18:29:23.765Z,59.54
2022-12-18T18:31:53.166Z,57.93
2022-12-18T18:34:29.529Z,58.38
2022-12-18T18:36:59.660Z,60.43
2022-12-18T18:39:27.151Z,59.59
2022-12-18T18:41:54.132Z,59.38
2022-12-18T18:44:25.611Z,59.08
2022-12-18T18:46:57.114Z,57.85
2022-12-18T18:49:27.412Z,58.08
2022-12-18T18:51:57.418Z,57.41
2022-12-18T18:54:25.574Z,58.15
2022-12-18T18:59:39.133Z,58.22
2022-12-18T19:02:07.396Z,57.10
2022-12-18T19:04:34.523Z,57.81
2022-12-18T19:07:01.597Z,57.97
2022-12-18T19:09:28.741Z,58.79
2022-12-18T19:12:14.375Z,58.81
2022-12-18T19:14:44.053Z,57.62
2022-12-18T19:17:10.813Z,56.17
2022-12-18T19:19:37.707Z,59.10
2022-12-18T19:22:06.219Z,57.02
2022-12-18T19:24:33.067Z,56.57
2022-12-18T19:27:00.783Z,56.19
2022-12-18T19:29:27.695Z,59.19
2022-12-18T19:31:54.607Z,58.02
2022-12-18T19:34:21.517Z,58.47
2022-12-18T19:36:48.522Z,58.63
2022-12-18T19:39:19.184Z,59.57
2022-12-18T19:41:46.864Z,57.07
2022-12-18T19:44:16.223Z,56.03
2022-12-18T19:46:46.007Z,55.68
2022-12-18T19:49:18.093Z,56.27
2022-12-18T19:51:45.815Z,56.21
2022-12-18T19:54:16.980Z,55.98
2022-12-18T19:56:45.713Z,56.58
2022-12-18T19:59:13.377Z,55.76
2022-12-18T20:01:41.095Z,55.37
2022-12-18T20:04:08.080Z,55.22
2022-12-18T20:06:49.759Z,53.12
2022-12-18T20:09:17.887Z,52.08
2022-12-18T20:11:46.431Z,56.15
2022-12-18T20:14:16.860Z,57.27
2022-12-18T20:16:49.052Z,56.82
2022-12-18T20:19:15.908Z,58.16
2022-12-18T20:21:43.096Z,57.02
2022-12-18T20:24:10.298Z,56.19
2022-12-18T20:26:37.992Z,57.49
2022-12-18T20:29:05.152Z,54.97
2022-12-18T20:31:32.445Z,55.67
2022-12-18T20:34:01.526Z,56.69
2022-12-18T20:36:29.601Z,56.14
2022-12-18T20:39:00.449Z,54.79
2022-12-18T20:41:31.988Z,55.95
2022-12-18T20:44:22.910Z,54.83
2022-12-18T20:46:57.729Z,55.60
2022-12-18T20:49:26.419Z,56.91
2022-12-18T20:51:56.209Z,56.18
2022-12-18T20:54:25.746Z,56.45
2022-12-18T20:56:52.542Z,57.89
2022-12-18T20:59:19.666Z,56.01
2022-12-18T21:01:48.331Z,55.11
2022-12-18T21:04:18.015Z,56.82
2022-12-18T21:06:49.408Z,58.81
2022-12-18T21:09:20.349Z,59.42
2022-12-18T21:12:05.803Z,57.83
2022-12-18T21:14:32.629Z,58.34
2022-12-18T21:17:02.743Z,57.44
2022-12-18T21:19:29.841Z,55.18
2022-12-18T21:21:57.595Z,54.96
2022-12-18T21:24:25.064Z,54.21
2022-12-18T21:26:52.553Z,55.02
2022-12-18T21:29:23.356Z,53.89
2022-12-18T21:31:51.773Z,55.99
2022-12-18T21:34:27.713Z,57.21
2022-12-18T21:36:57.204Z,57.60
2022-12-18T21:39:25.366Z,54.65
2022-12-18T21:42:10.971Z,54.81
2022-12-18T21:44:40.167Z,54.05
2022-12-18T21:47:22.216Z,53.44
2022-12-18T21:49:52.498Z,53.99
2022-12-18T21:52:22.465Z,54.55
2022-12-18T21:55:01.861Z,54.12
2022-12-18T21:57:31.609Z,55.62
2022-12-18T21:59:59.408Z,55.68
2022-12-18T22:02:26.679Z,54.48
2022-12-18T22:04:53.508Z,56.21
2022-12-18T22:07:20.658Z,53.71
2022-12-18T22:09:49.459Z,52.48
2022-12-18T22:12:35.161Z,51.55
2022-12-18T22:15:04.862Z,53.83
2022-12-18T22:17:31.845Z,55.61
2022-12-18T22:19:58.680Z,57.41
2022-12-18T22:22:25.506Z,56.80
2022-12-18T22:24:52.296Z,56.92
2022-12-18T22:27:19.011Z,56.64
2022-12-18T22:30:03.999Z,56.26
2022-12-18T22:32:35.505Z,54.41
2022-12-18T22:35:12.940Z,54.13
2022-12-18T22:37:42.308Z,54.65
2022-12-18T22:40:23.947Z,55.38
2022-12-18T22:42:52.999Z,54.98
2022-12-18T22:45:20.323Z,55.37
2022-12-18T22:47:47.105Z,57.04
2022-12-18T22:50:14.507Z,55.90
2022-12-18T22:52:41.304Z,56.37
2022-12-18T22:55:08.561Z,57.17
2022-12-18T22:57:35.354Z,56.32
2022-12-18T23:00:05.644Z,54.53
2022-12-18T23:02:32.551Z,54.63
2022-12-18T23:04:59.377Z,55.75
2022-12-18T23:07:26.130Z,53.89
2022-12-18T23:09:57.385Z,54.91
2022-12-18T23:12:28.046Z,54.49
2022-12-18T23:14:54.794Z,55.91
2022-12-18T23:17:21.696Z,56.97
2022-12-18T23:19:49.419Z,57.82
2022-12-18T23:22:17.723Z,55.97
2022-12-18T23:24:44.516Z,55.39
2022-12-18T23:27:11.773Z,55.46
2022-12-18T23:29:40.110Z,54.17
2022-12-18T23:32:07.178Z,53.42
2022-12-18T23:34:33.886Z,55.49
2022-12-18T23:37:01.051Z,55.83
2022-12-18T23:39:29.656Z,55.85
2022-12-18T23:42:00.557Z,55.96
2022-12-18T23:44:28.060Z,57.56
2022-12-18T23:46:55.470Z,57.19
2022-12-18T23:49:22.863Z,56.18
2022-12-18T23:51:50.115Z,56.42
2022-12-18T23:54:16.836Z,56.84
2022-12-18T23:56:43.730Z,55.88
2022-12-18T23:59:10.548Z,56.98
